Terminal Aerodrome Forecast
Issued by NWS

Home | Current Version | Previous Version | Text Only | Print | Product List | Glossary On
Versions: 1 2 3 4 5 6 7 8 9 10 11 12 13 14 15 16 17 18 19 20 21
000
FTUS41 KILN 292340
TAFLUK
TAF
KLUK 292340Z 3000/3024 03003KT P6SM VCSH SCT035 BKN090
     FM300300 00000KT P6SM -SHRA OVC018
     FM300600 00000KT 3SM -SHRA BR OVC009
     FM301300 15005KT P6SM VCSH OVC018
     FM301600 16006KT P6SM VCSH BKN035=

USA.gov is the U.S. government's official web portal to all federal, state and local government web resources and services.